Time;durP1;ratioP1;P1;durP2;ratioP2;P2;SDS_P1;SDS_P2;PMS_P1;PMS_P2;Temp;Humidity;BMP_temperature;BMP_pressure;BME280_temperature;BME280_humidity;BME280_pressure;Samples;Min_cycle;Max_cycle;Signal;HPM_P1;HPM_P2
2022/06/17 00:02:03;;;;;;;2.72;0.75;;;;;;;;;;5073551;28;20442;-54
2022/06/17 00:04:29;;;;;;;1.73;0.90;;;;;;;;;;5069512;28;20024;-55
2022/06/17 00:06:57;;;;;;;1.55;0.85;;;;;;;;;;5066013;28;20040;-55
2022/06/17 00:09:24;;;;;;;1.05;0.77;;;;;;;;;;5077513;28;20441;-54
2022/06/17 00:11:50;;;;;;;2.90;1.35;;;;;;;;;;5071596;28;20032;-53
2022/06/17 00:14:20;;;;;;;1.50;0.60;;;;;;;;;;5079188;28;20368;-55
2022/06/17 00:16:48;;;;;;;0.90;0.80;;;;;;;;;;5074032;28;20032;-57
2022/06/17 00:19:14;;;;;;;2.00;0.82;;;;;;;;;;5069999;28;20040;-55
2022/06/17 00:21:42;;;;;;;1.92;0.70;;;;;;;;;;5070263;28;20057;-54
2022/06/17 00:24:20;;;;;;;1.98;1.00;;;;;;;;;;5068879;28;20107;-54
2022/06/17 00:26:46;;;;;;;1.55;0.90;;;;;;;;;;5072077;28;21733;-53
2022/06/17 00:29:13;;;;;;;3.13;1.08;;;;;;;;;;5076205;28;20021;-55
2022/06/17 00:31:39;;;;;;;1.60;0.85;;;;;;;;;;5068273;28;20372;-54
2022/06/17 00:34:05;;;;;;;3.60;1.23;;;;;;;;;;5068322;28;20062;-50
2022/06/17 00:36:31;;;;;;;1.70;0.75;;;;;;;;;;5073328;28;20024;-53
2022/06/17 00:38:57;;;;;;;3.75;0.88;;;;;;;;;;5073370;28;20035;-56
2022/06/17 00:41:30;;;;;;;1.42;0.70;;;;;;;;;;5077615;28;20040;-56
2022/06/17 00:43:56;;;;;;;;;;;;;;;;;;5076529;28;20032;-54
2022/06/17 00:46:35;;;;;;;0.95;0.80;;;;;;;;;;5072008;28;19955;-56
2022/06/17 00:49:05;;;;;;;1.80;0.88;;;;;;;;;;5073210;28;20028;-54
2022/06/17 00:51:34;;;;;;;2.47;1.10;;;;;;;;;;5072050;28;20036;-54
2022/06/17 00:54:07;;;;;;;0.68;0.68;;;;;;;;;;5075424;28;20042;-54
2022/06/17 00:56:35;;;;;;;3.72;0.90;;;;;;;;;;5063010;28;20483;-52
2022/06/17 00:59:09;;;;;;;5.30;1.10;;;;;;;;;;5072415;28;20025;-54
2022/06/17 01:01:38;;;;;;;1.23;0.77;;;;;;;;;;5075246;28;20028;-54
2022/06/17 01:04:05;;;;;;;0.90;0.63;;;;;;;;;;5067323;28;20657;-55
2022/06/17 01:06:35;;;;;;;2.05;0.63;;;;;;;;;;5075456;28;20052;-55
2022/06/17 01:11:55;;;;;;;1.10;0.95;;;;;;;;;;5069841;28;20093;-53
2022/06/17 01:14:21;;;;;;;1.45;0.90;;;;;;;;;;5066273;28;20020;-54
2022/06/17 01:16:48;;;;;;;2.42;0.93;;;;;;;;;;5083360;28;20035;-54
2022/06/17 01:19:33;;;;;;;2.40;0.82;;;;;;;;;;5059039;28;20489;-57
2022/06/17 01:22:05;;;;;;;1.05;0.85;;;;;;;;;;5070008;28;20028;-54
2022/06/17 01:24:31;;;;;;;2.78;0.80;;;;;;;;;;5069705;28;20062;-55
2022/06/17 01:26:57;;;;;;;2.92;1.00;;;;;;;;;;5070731;28;20672;-55
2022/06/17 01:29:23;;;;;;;2.03;0.80;;;;;;;;;;5070737;28;20112;-55
2022/06/17 01:31:51;;;;;;;1.30;0.85;;;;;;;;;;5069341;28;20438;-55
2022/06/17 01:34:18;;;;;;;2.72;0.80;;;;;;;;;;5070620;28;20032;-53
2022/06/17 01:36:45;;;;;;;2.03;0.75;;;;;;;;;;5069509;28;20063;-53
2022/06/17 01:39:13;;;;;;;1.27;0.68;;;;;;;;;;5069548;28;20073;-55
2022/06/17 01:41:39;;;;;;;2.08;0.93;;;;;;;;;;5072099;28;20420;-53
2022/06/17 01:44:10;;;;;;;2.10;0.70;;;;;;;;;;5073858;28;20073;-52
2022/06/17 01:46:38;;;;;;;3.10;0.90;;;;;;;;;;5069489;28;20033;-52
2022/06/17 01:49:05;;;;;;;1.52;0.80;;;;;;;;;;5068523;28;20046;-52
2022/06/17 01:51:33;;;;;;;4.25;1.02;;;;;;;;;;5070946;28;20021;-54
2022/06/17 01:54:01;;;;;;;4.03;1.23;;;;;;;;;;5078232;28;20605;-54
2022/06/17 01:56:30;;;;;;;1.05;0.77;;;;;;;;;;5073235;28;20471;-54
2022/06/17 01:58:59;;;;;;;3.05;0.80;;;;;;;;;;5071640;28;20029;-56
2022/06/17 02:01:28;;;;;;;1.23;0.93;;;;;;;;;;5067931;28;20388;-55
2022/06/17 02:04:00;;;;;;;2.55;1.05;;;;;;;;;;5067737;28;20048;-55
2022/06/17 02:06:29;;;;;;;1.80;1.02;;;;;;;;;;5069939;28;20463;-54
2022/06/17 02:08:55;;;;;;;1.10;0.93;;;;;;;;;;5081930;28;20017;-55
2022/06/17 02:11:21;;;;;;;0.77;0.68;;;;;;;;;;5070039;28;20028;-53
2022/06/17 02:13:47;;;;;;;2.67;0.90;;;;;;;;;;5068615;28;20492;-57
2022/06/17 02:16:13;;;;;;;1.27;0.73;;;;;;;;;;5071089;28;20028;-56
2022/06/17 02:18:41;;;;;;;1.02;0.70;;;;;;;;;;5071428;28;20111;-51
2022/06/17 02:21:10;;;;;;;1.75;0.90;;;;;;;;;;5068082;28;20123;-55
2022/06/17 02:23:36;;;;;;;1.77;0.75;;;;;;;;;;5075791;28;20028;-54
2022/06/17 02:26:02;;;;;;;1.40;0.90;;;;;;;;;;5070418;28;20094;-52
2022/06/17 02:28:29;;;;;;;2.30;1.02;;;;;;;;;;5075289;28;20492;-52
2022/06/17 02:30:55;;;;;;;5.20;1.15;;;;;;;;;;5072697;28;20027;-54
2022/06/17 02:33:23;;;;;;;2.95;1.20;;;;;;;;;;5082489;28;20028;-56
2022/06/17 02:35:52;;;;;;;1.02;0.70;;;;;;;;;;5061810;28;20032;-55
2022/06/17 02:38:20;;;;;;;4.03;1.10;;;;;;;;;;5070357;28;20024;-55
2022/06/17 02:40:47;;;;;;;1.35;0.80;;;;;;;;;;5068914;28;20042;-55
2022/06/17 02:43:16;;;;;;;1.17;0.90;;;;;;;;;;5067428;28;20172;-55
2022/06/17 02:45:47;;;;;;;2.20;1.10;;;;;;;;;;5074475;28;20377;-54
2022/06/17 02:48:24;;;;;;;2.20;0.90;;;;;;;;;;5070156;28;20472;-55
2022/06/17 02:50:51;;;;;;;2.25;1.00;;;;;;;;;;5075846;28;20412;-56
2022/06/17 02:53:17;;;;;;;2.72;1.02;;;;;;;;;;5069702;28;20046;-56
2022/06/17 02:55:44;;;;;;;0.85;0.77;;;;;;;;;;5080908;28;20039;-55
2022/06/17 02:58:21;;;;;;;1.90;1.00;;;;;;;;;;5084426;28;20028;-56
2022/06/17 03:00:48;;;;;;;1.45;0.80;;;;;;;;;;5069834;28;20029;-58
2022/06/17 03:03:16;;;;;;;1.27;0.88;;;;;;;;;;5071137;28;20028;-57
2022/06/17 03:05:43;;;;;;;2.65;0.93;;;;;;;;;;5078105;28;20036;-55
2022/06/17 03:08:29;;;;;;;1.42;0.98;;;;;;;;;;5074174;28;20616;-54
2022/06/17 03:10:57;;;;;;;1.80;0.73;;;;;;;;;;5067317;28;20028;-55
2022/06/17 03:13:31;;;;;;;1.35;0.75;;;;;;;;;;5068517;28;20111;-56
2022/06/17 03:15:59;;;;;;;0.95;0.70;;;;;;;;;;5062400;28;20038;-56
2022/06/17 03:18:25;;;;;;;1.75;1.00;;;;;;;;;;5069610;28;20087;-55
2022/06/17 03:20:51;;;;;;;3.25;0.98;;;;;;;;;;5068302;28;20040;-55
2022/06/17 03:23:24;;;;;;;2.85;0.82;;;;;;;;;;5066754;28;20480;-55
2022/06/17 03:25:56;;;;;;;1.48;0.93;;;;;;;;;;5076013;28;20041;-55
2022/06/17 03:28:54;;;;;;;2.58;1.08;;;;;;;;;;5068912;28;20184;-54
2022/06/17 03:31:28;;;;;;;3.05;1.20;;;;;;;;;;5072874;28;20089;-51
2022/06/17 03:33:56;;;;;;;3.40;1.00;;;;;;;;;;5073120;28;20040;-54
2022/06/17 03:36:32;;;;;;;3.55;1.30;;;;;;;;;;5072615;28;20769;-55
2022/06/17 03:39:01;;;;;;;1.42;1.10;;;;;;;;;;5059034;28;20108;-53
2022/06/17 03:41:30;;;;;;;1.90;1.02;;;;;;;;;;5071141;28;20028;-53
2022/06/17 03:44:04;;;;;;;1.98;0.88;;;;;;;;;;5075711;28;20035;-56
2022/06/17 03:46:30;;;;;;;;;;;;;;;;;;5071058;28;20029;-55
2022/06/17 03:48:59;;;;;;;2.00;1.10;;;;;;;;;;5070982;28;19936;-53
2022/06/17 03:51:25;;;;;;;1.30;0.85;;;;;;;;;;5057207;28;20104;-52
2022/06/17 03:53:52;;;;;;;2.75;0.82;;;;;;;;;;5071529;28;20401;-52
2022/06/17 03:56:22;;;;;;;1.95;1.08;;;;;;;;;;5071544;28;20040;-54
2022/06/17 03:58:48;;;;;;;1.65;1.13;;;;;;;;;;5074529;28;20032;-55
2022/06/17 04:01:17;;;;;;;1.20;0.88;;;;;;;;;;5067166;28;20128;-54
2022/06/17 04:03:46;;;;;;;2.28;1.10;;;;;;;;;;5064491;28;20067;-55
2022/06/17 04:06:14;;;;;;;1.80;0.95;;;;;;;;;;5067865;28;20334;-54
2022/06/17 04:08:56;;;;;;;1.48;0.98;;;;;;;;;;5069437;28;20052;-54
2022/06/17 04:11:23;;;;;;;3.00;1.10;;;;;;;;;;5069856;28;20476;-54
2022/06/17 04:13:51;;;;;;;3.30;1.23;;;;;;;;;;5071364;28;20483;-55
2022/06/17 04:16:17;;;;;;;2.22;1.13;;;;;;;;;;5068458;28;20032;-53
2022/06/17 04:18:42;;;;;;;1.00;0.85;;;;;;;;;;5068352;28;20054;-55
2022/06/17 04:21:12;;;;;;;3.72;1.00;;;;;;;;;;5069150;28;20037;-56
2022/06/17 04:23:38;;;;;;;3.05;1.10;;;;;;;;;;5066458;28;20135;-56
2022/06/17 04:26:15;;;;;;;2.05;1.25;;;;;;;;;;5074154;28;20044;-54
2022/06/17 04:28:59;;;;;;;2.97;1.30;;;;;;;;;;5073884;28;20035;-54
2022/06/17 04:31:26;;;;;;;1.98;1.17;;;;;;;;;;5073071;28;20029;-50
2022/06/17 04:33:54;;;;;;;1.42;1.10;;;;;;;;;;5071986;28;20025;-54
2022/06/17 04:36:22;;;;;;;3.30;1.30;;;;;;;;;;5072640;28;20029;-55
2022/06/17 04:38:50;;;;;;;3.47;1.13;;;;;;;;;;5072890;28;20071;-54
2022/06/17 04:41:17;;;;;;;2.13;1.00;;;;;;;;;;5071072;28;20505;-54
2022/06/17 04:43:47;;;;;;;2.88;1.45;;;;;;;;;;5070096;28;20020;-53
2022/06/17 04:46:15;;;;;;;1.70;1.20;;;;;;;;;;5071779;28;20404;-56
2022/06/17 04:48:41;;;;;;;2.25;1.30;;;;;;;;;;5063628;28;20499;-57
2022/06/17 04:51:09;;;;;;;4.22;1.23;;;;;;;;;;5064740;28;20027;-54
2022/06/17 04:53:38;;;;;;;1.55;0.98;;;;;;;;;;5057874;28;20040;-55
2022/06/17 04:56:05;;;;;;;7.63;1.60;;;;;;;;;;5067105;28;20119;-54
2022/06/17 04:58:31;;;;;;;2.65;1.23;;;;;;;;;;5075000;28;20544;-54
2022/06/17 05:00:58;;;;;;;2.35;1.25;;;;;;;;;;5068656;28;20081;-53
2022/06/17 05:03:26;;;;;;;2.20;1.50;;;;;;;;;;5071082;28;20020;-53
2022/06/17 05:05:52;;;;;;;2.80;1.23;;;;;;;;;;5070665;28;20028;-54
2022/06/17 05:08:21;;;;;;;2.45;1.20;;;;;;;;;;5062039;28;20086;-56
2022/06/17 05:10:51;;;;;;;8.90;1.85;;;;;;;;;;5070310;28;20024;-54
2022/06/17 05:13:25;;;;;;;2.95;1.33;;;;;;;;;;5068850;28;20471;-52
2022/06/17 05:15:51;;;;;;;3.15;1.40;;;;;;;;;;5072376;28;20434;-56
2022/06/17 05:18:17;;;;;;;2.53;1.30;;;;;;;;;;5069628;28;20036;-54
2022/06/17 05:20:44;;;;;;;4.75;1.50;;;;;;;;;;5074359;28;20035;-56
2022/06/17 05:23:12;;;;;;;7.75;1.88;;;;;;;;;;5070239;28;20166;-54
2022/06/17 05:25:40;;;;;;;3.28;1.75;;;;;;;;;;5071286;28;20036;-55
2022/06/17 05:28:07;;;;;;;2.75;1.40;;;;;;;;;;5074829;28;20028;-54
2022/06/17 05:30:35;;;;;;;2.95;1.30;;;;;;;;;;5069666;28;20025;-56
2022/06/17 05:33:01;;;;;;;6.43;2.22;;;;;;;;;;5071712;28;20029;-54
2022/06/17 05:35:27;;;;;;;7.85;1.90;;;;;;;;;;5071379;28;20032;-53
2022/06/17 05:37:53;;;;;;;11.57;1.83;;;;;;;;;;5069966;28;21730;-55
2022/06/17 05:40:19;;;;;;;3.55;2.10;;;;;;;;;;5067819;28;20037;-55
2022/06/17 05:42:46;;;;;;;5.07;1.83;;;;;;;;;;5066411;28;20025;-54
2022/06/17 05:45:17;;;;;;;4.18;1.88;;;;;;;;;;5059483;28;24641;-54
2022/06/17 05:47:43;;;;;;;4.05;1.65;;;;;;;;;;5068187;28;20456;-55
2022/06/17 05:50:12;;;;;;;6.10;2.58;;;;;;;;;;5069733;28;20412;-53
2022/06/17 05:52:51;;;;;;;3.35;2.10;;;;;;;;;;5069963;28;20039;-55
2022/06/17 05:55:18;;;;;;;3.13;2.05;;;;;;;;;;5077041;28;20500;-54
2022/06/17 05:57:44;;;;;;;3.63;2.40;;;;;;;;;;5083649;28;20029;-55
2022/06/17 06:00:10;;;;;;;3.75;2.30;;;;;;;;;;5070048;28;20041;-55
2022/06/17 06:02:36;;;;;;;4.38;2.33;;;;;;;;;;5066769;28;20513;-56
2022/06/17 06:05:03;;;;;;;7.18;2.40;;;;;;;;;;5070999;28;20021;-56
2022/06/17 06:07:29;;;;;;;4.25;2.25;;;;;;;;;;5070408;28;20020;-53
2022/06/17 06:09:55;;;;;;;4.28;1.90;;;;;;;;;;5072172;28;20028;-53
2022/06/17 06:12:21;;;;;;;4.68;2.10;;;;;;;;;;5069549;28;20037;-54
2022/06/17 06:14:47;;;;;;;5.18;2.13;;;;;;;;;;5069167;28;20041;-55
2022/06/17 06:17:13;;;;;;;4.00;2.22;;;;;;;;;;5067248;28;20374;-54
2022/06/17 06:19:39;;;;;;;7.90;2.90;;;;;;;;;;5072097;28;20081;-56
2022/06/17 06:22:05;;;;;;;6.55;2.67;;;;;;;;;;5070996;28;20029;-54
2022/06/17 06:24:31;;;;;;;4.70;2.10;;;;;;;;;;5070808;28;20454;-52
2022/06/17 06:26:57;;;;;;;4.30;2.08;;;;;;;;;;5065319;28;20037;-54
2022/06/17 06:29:23;;;;;;;5.47;1.90;;;;;;;;;;5073131;28;20025;-55
2022/06/17 06:31:49;;;;;;;5.90;1.80;;;;;;;;;;5068285;28;20099;-54
2022/06/17 06:34:20;;;;;;;6.20;2.15;;;;;;;;;;5077186;28;20075;-55
2022/06/17 06:36:46;;;;;;;6.18;2.30;;;;;;;;;;5075159;28;20038;-53
2022/06/17 06:39:12;;;;;;;5.75;2.35;;;;;;;;;;5085031;28;20209;-54
2022/06/17 06:41:38;;;;;;;3.88;1.55;;;;;;;;;;5080389;28;20078;-53
2022/06/17 06:44:04;;;;;;;6.88;1.92;;;;;;;;;;5073119;28;20369;-54
2022/06/17 06:46:32;;;;;;;17.70;2.75;;;;;;;;;;5073962;28;20081;-53
2022/06/17 06:48:58;;;;;;;11.98;2.70;;;;;;;;;;5072123;28;20024;-55
2022/06/17 06:51:24;;;;;;;10.48;2.30;;;;;;;;;;5072318;28;20020;-54
2022/06/17 06:53:50;;;;;;;6.30;2.13;;;;;;;;;;5070944;28;20503;-54
2022/06/17 06:56:16;;;;;;;7.60;2.00;;;;;;;;;;5082030;28;20468;-55
2022/06/17 06:58:42;;;;;;;3.28;1.60;;;;;;;;;;5064507;28;20039;-54
2022/06/17 07:01:08;;;;;;;5.82;2.13;;;;;;;;;;5071196;28;20033;-57
2022/06/17 07:03:34;;;;;;;8.18;1.95;;;;;;;;;;5071284;28;20025;-56
2022/06/17 07:06:02;;;;;;;4.53;2.03;;;;;;;;;;5089667;28;20024;-50
2022/06/17 07:08:29;;;;;;;2.80;1.63;;;;;;;;;;5073759;28;20024;-52
2022/06/17 07:10:56;;;;;;;3.72;2.13;;;;;;;;;;5076971;28;20514;-53
2022/06/17 07:13:22;;;;;;;3.92;1.77;;;;;;;;;;5078504;28;20051;-55
2022/06/17 07:15:50;;;;;;;6.35;2.10;;;;;;;;;;5070218;28;20033;-55
2022/06/17 07:18:21;;;;;;;7.85;2.33;;;;;;;;;;5070473;28;20028;-54
2022/06/17 07:20:48;;;;;;;4.75;1.85;;;;;;;;;;5070781;28;20033;-54
2022/06/17 07:23:28;;;;;;;9.85;2.22;;;;;;;;;;5070527;28;20552;-56
2022/06/17 07:25:54;;;;;;;5.82;2.10;;;;;;;;;;5070364;28;20025;-56
2022/06/17 07:28:21;;;;;;;3.35;1.77;;;;;;;;;;5070990;28;20144;-53
2022/06/17 07:30:48;;;;;;;5.60;1.58;;;;;;;;;;5069293;28;20055;-56
2022/06/17 07:33:15;;;;;;;2.88;1.60;;;;;;;;;;5084634;28;20025;-55
2022/06/17 07:35:42;;;;;;;4.07;1.75;;;;;;;;;;5070626;28;20082;-55
2022/06/17 07:41:02;;;;;;;7.72;1.83;;;;;;;;;;5070476;28;20035;-53
2022/06/17 07:43:28;;;;;;;3.60;1.73;;;;;;;;;;5070814;28;20017;-56
2022/06/17 07:45:54;;;;;;;1.92;1.17;;;;;;;;;;5070151;28;20021;-54
2022/06/17 07:48:21;;;;;;;4.38;1.60;;;;;;;;;;5069510;28;20120;-57
2022/06/17 07:50:47;;;;;;;5.07;1.35;;;;;;;;;;5070906;28;20081;-56
2022/06/17 07:53:14;;;;;;;4.43;1.40;;;;;;;;;;5050043;28;20700;-55
2022/06/17 07:55:40;;;;;;;2.55;1.35;;;;;;;;;;5070599;28;20048;-56
2022/06/17 07:58:06;;;;;;;4.13;1.50;;;;;;;;;;5070606;28;20037;-55
2022/06/17 08:00:38;;;;;;;1.77;1.15;;;;;;;;;;5070084;28;20119;-55
2022/06/17 08:03:04;;;;;;;2.47;1.23;;;;;;;;;;5076544;28;20025;-55
2022/06/17 08:05:31;;;;;;;5.07;2.08;;;;;;;;;;5070343;28;20038;-55
2022/06/17 08:07:57;;;;;;;4.65;1.60;;;;;;;;;;5070676;28;20118;-56
2022/06/17 08:10:25;;;;;;;3.30;1.58;;;;;;;;;;5082573;28;20494;-55
2022/06/17 08:12:51;;;;;;;4.18;1.83;;;;;;;;;;5069215;28;20032;-55
2022/06/17 08:15:17;;;;;;;5.28;1.48;;;;;;;;;;5070439;28;20032;-56
2022/06/17 08:17:43;;;;;;;3.00;1.40;;;;;;;;;;5070559;28;20071;-56
2022/06/17 08:20:16;;;;;;;4.25;1.38;;;;;;;;;;5068483;28;20036;-57
2022/06/17 08:22:42;;;;;;;6.55;1.45;;;;;;;;;;5070525;28;20021;-53
2022/06/17 08:25:08;;;;;;;3.88;1.33;;;;;;;;;;5070415;28;20039;-55
2022/06/17 08:27:41;;;;;;;2.78;1.50;;;;;;;;;;5069327;28;20088;-57
2022/06/17 08:30:07;;;;;;;4.65;1.60;;;;;;;;;;5070081;28;20085;-55
2022/06/17 08:32:45;;;;;;;3.58;1.50;;;;;;;;;;5070565;28;20097;-56
2022/06/17 08:35:12;;;;;;;2.20;0.88;;;;;;;;;;5070275;28;20720;-55
2022/06/17 08:37:38;;;;;;;6.03;1.30;;;;;;;;;;5069124;28;20040;-57
2022/06/17 08:40:17;;;;;;;6.47;1.10;;;;;;;;;;5069916;28;20074;-55
2022/06/17 08:42:47;;;;;;;4.05;0.90;;;;;;;;;;5059967;28;20103;-56
2022/06/17 08:45:16;;;;;;;1.80;0.80;;;;;;;;;;5069841;28;20116;-53
2022/06/17 08:48:02;;;;;;;2.35;1.10;;;;;;;;;;5070219;28;20036;-56
2022/06/17 08:50:40;;;;;;;4.70;1.08;;;;;;;;;;5058245;28;20048;-55
2022/06/17 08:53:12;;;;;;;3.97;0.90;;;;;;;;;;5070167;28;20104;-54
2022/06/17 08:55:44;;;;;;;11.10;1.60;;;;;;;;;;5070200;28;20052;-56
2022/06/17 08:58:26;;;;;;;2.92;0.80;;;;;;;;;;5072836;28;20756;-57
2022/06/17 09:01:12;;;;;;;3.65;1.00;;;;;;;;;;5072051;28;20028;-55
2022/06/17 09:03:51;;;;;;;2.05;0.90;;;;;;;;;;5033580;28;20549;-56
2022/06/17 09:06:35;;;;;;;1.23;0.52;;;;;;;;;;5073699;28;20025;-56
2022/06/17 09:09:18;;;;;;;2.05;0.90;;;;;;;;;;5073643;28;20444;-54
2022/06/17 09:11:53;;;;;;;2.83;0.80;;;;;;;;;;5072387;28;20029;-55
2022/06/17 09:14:36;;;;;;;3.72;1.00;;;;;;;;;;5076475;28;20028;-56
2022/06/17 09:17:10;;;;;;;2.47;0.80;;;;;;;;;;5071734;28;20029;-56
2022/06/17 09:19:38;;;;;;;2.30;0.70;;;;;;;;;;5073039;28;20037;-58
2022/06/17 09:22:10;;;;;;;2.22;0.77;;;;;;;;;;5073117;28;20033;-55
2022/06/17 09:24:39;;;;;;;3.97;0.70;;;;;;;;;;5072998;28;20024;-56
2022/06/17 09:27:06;;;;;;;1.17;0.70;;;;;;;;;;5086846;28;20024;-56
2022/06/17 09:29:55;;;;;;;3.03;1.00;;;;;;;;;;5073062;28;20418;-54
2022/06/17 09:32:25;;;;;;;2.15;0.60;;;;;;;;;;5061351;28;20040;-56
2022/06/17 09:34:54;;;;;;;1.10;0.60;;;;;;;;;;5073255;28;20017;-54
2022/06/17 09:37:25;;;;;;;0.90;0.70;;;;;;;;;;5073153;28;20021;-55
2022/06/17 09:39:57;;;;;;;3.45;0.82;;;;;;;;;;5070320;28;20043;-55
2022/06/17 09:42:32;;;;;;;2.35;0.70;;;;;;;;;;5073212;28;20078;-56
2022/06/17 09:45:05;;;;;;;2.00;0.80;;;;;;;;;;5073200;28;20013;-55
2022/06/17 09:47:44;;;;;;;3.17;1.00;;;;;;;;;;5072489;28;20491;-56
2022/06/17 09:50:19;;;;;;;1.60;0.70;;;;;;;;;;5072156;28;20073;-55
2022/06/17 09:52:52;;;;;;;7.25;1.25;;;;;;;;;;5072884;28;20032;-57
2022/06/17 09:55:54;;;;;;;2.13;0.90;;;;;;;;;;5071659;28;20052;-58
2022/06/17 09:58:34;;;;;;;1.27;0.52;;;;;;;;;;4991087;28;20518;-53
2022/06/17 10:01:01;;;;;;;2.03;0.75;;;;;;;;;;5062576;28;20135;-53
2022/06/17 10:03:28;;;;;;;3.03;0.90;;;;;;;;;;5075303;28;20025;-55
2022/06/17 10:05:59;;;;;;;2.53;0.77;;;;;;;;;;5067476;28;20043;-55
2022/06/17 10:08:48;;;;;;;1.05;0.80;;;;;;;;;;5071631;28;20468;-55
2022/06/17 10:11:22;;;;;;;1.35;0.52;;;;;;;;;;5070580;28;20017;-56
2022/06/17 10:13:47;;;;;;;;;;;;;;;;;;5090243;28;20391;-56
2022/06/17 10:19:12;;;;;;;3.92;0.52;;;;;;;;;;5070879;28;20098;-56
2022/06/17 10:21:41;;;;;;;1.75;0.70;;;;;;;;;;5071829;28;20040;-56
2022/06/17 10:24:13;;;;;;;1.50;0.70;;;;;;;;;;5071806;28;20542;-56
2022/06/17 10:26:51;;;;;;;2.67;0.60;;;;;;;;;;5071996;28;20041;-56
2022/06/17 10:29:23;;;;;;;2.40;0.70;;;;;;;;;;5070629;28;20606;-54
2022/06/17 10:31:51;;;;;;;2.15;0.80;;;;;;;;;;5085086;28;20036;-57
2022/06/17 10:34:19;;;;;;;1.98;0.70;;;;;;;;;;5071204;28;20082;-54
2022/06/17 10:36:46;;;;;;;3.33;0.70;;;;;;;;;;5071693;28;20029;-55
2022/06/17 10:39:14;;;;;;;1.25;0.50;;;;;;;;;;5071717;28;20021;-56
2022/06/17 10:41:40;;;;;;;1.45;0.43;;;;;;;;;;5071151;28;20032;-56
2022/06/17 10:44:09;;;;;;;2.40;0.68;;;;;;;;;;5070454;28;20549;-56
2022/06/17 10:46:39;;;;;;;4.68;0.77;;;;;;;;;;5053576;28;20025;-57
2022/06/17 10:49:21;;;;;;;2.83;0.65;;;;;;;;;;5071840;28;20097;-56
2022/06/17 10:51:49;;;;;;;1.48;0.50;;;;;;;;;;5071316;28;20554;-55
2022/06/17 10:54:22;;;;;;;2.08;0.60;;;;;;;;;;5065443;28;20093;-56
2022/06/17 10:56:56;;;;;;;4.03;0.30;;;;;;;;;;5070744;28;20115;-57
2022/06/17 10:59:33;;;;;;;0.88;0.47;;;;;;;;;;5071500;28;20044;-56
2022/06/17 11:01:59;;;;;;;4.68;0.52;;;;;;;;;;5076015;28;20044;-56
2022/06/17 11:04:30;;;;;;;2.97;0.85;;;;;;;;;;5071028;28;20507;-55
2022/06/17 11:07:00;;;;;;;1.48;0.50;;;;;;;;;;5071059;28;20092;-55
2022/06/17 11:09:28;;;;;;;1.50;0.60;;;;;;;;;;5071260;28;20025;-56
2022/06/17 11:12:03;;;;;;;1.42;0.60;;;;;;;;;;5070414;28;20032;-55
2022/06/17 11:14:35;;;;;;;2.83;0.73;;;;;;;;;;5071320;28;20161;-55
2022/06/17 11:17:02;;;;;;;1.80;0.50;;;;;;;;;;5073837;28;20441;-56
2022/06/17 11:19:29;;;;;;;2.05;0.70;;;;;;;;;;5077734;28;20081;-56
2022/06/17 11:21:58;;;;;;;6.80;1.20;;;;;;;;;;5071160;28;20487;-57
2022/06/17 11:24:27;;;;;;;2.58;0.70;;;;;;;;;;5083131;28;20428;-57
2022/06/17 11:27:06;;;;;;;1.77;0.73;;;;;;;;;;5070838;28;20096;-56
2022/06/17 11:29:37;;;;;;;5.25;0.77;;;;;;;;;;5071212;28;20415;-56
2022/06/17 11:32:12;;;;;;;5.53;0.60;;;;;;;;;;5069008;28;20388;-56
2022/06/17 11:34:46;;;;;;;2.17;0.60;;;;;;;;;;5069147;28;20647;-57
2022/06/17 11:37:17;;;;;;;1.63;0.50;;;;;;;;;;5068288;28;20023;-56
2022/06/17 11:39:44;;;;;;;1.15;0.60;;;;;;;;;;5068824;28;20484;-59
2022/06/17 11:42:18;;;;;;;2.13;0.85;;;;;;;;;;5070688;28;20051;-55
2022/06/17 11:45:01;;;;;;;1.10;0.90;;;;;;;;;;5068611;28;20427;-57
2022/06/17 11:47:28;;;;;;;2.07;0.83;;;;;;;;;;5060414;28;20028;-54
2022/06/17 11:49:55;;;;;;;3.05;0.82;;;;;;;;;;5070544;28;20262;-57
2022/06/17 11:52:29;;;;;;;3.97;1.10;;;;;;;;;;5070527;28;20033;-56
2022/06/17 11:54:55;;;;;;;4.95;0.90;;;;;;;;;;5070671;28;20055;-56
2022/06/17 11:57:24;;;;;;;1.23;0.73;;;;;;;;;;5070296;28;20036;-56
2022/06/17 11:59:52;;;;;;;0.85;0.52;;;;;;;;;;5079678;28;20492;-56
2022/06/17 12:02:18;;;;;;;3.28;0.70;;;;;;;;;;5070370;28;20031;-56
2022/06/17 12:04:46;;;;;;;2.55;0.65;;;;;;;;;;5070771;28;20021;-57
2022/06/17 12:07:34;;;;;;;1.55;0.65;;;;;;;;;;5070641;28;20025;-56
2022/06/17 12:10:11;;;;;;;1.67;0.88;;;;;;;;;;5070252;28;20024;-56
2022/06/17 12:12:38;;;;;;;2.00;1.13;;;;;;;;;;5070106;28;20032;-58
2022/06/17 12:15:12;;;;;;;2.10;0.77;;;;;;;;;;5070705;28;20097;-56
2022/06/17 12:17:39;;;;;;;2.33;0.50;;;;;;;;;;5064349;28;20044;-58
2022/06/17 12:20:31;;;;;;;1.25;0.80;;;;;;;;;;5069558;28;20025;-58
2022/06/17 12:23:00;;;;;;;1.20;0.70;;;;;;;;;;5066238;28;20127;-57
2022/06/17 12:25:37;;;;;;;3.28;0.80;;;;;;;;;;5070234;28;20458;-57
2022/06/17 12:28:08;;;;;;;2.75;0.75;;;;;;;;;;5073171;28;20033;-55
2022/06/17 12:30:43;;;;;;;3.40;0.75;;;;;;;;;;5069197;28;20086;-56
2022/06/17 12:33:29;;;;;;;2.08;0.75;;;;;;;;;;5071869;28;20579;-57
2022/06/17 12:36:12;;;;;;;1.60;0.75;;;;;;;;;;5054028;28;20484;-57
2022/06/17 12:38:45;;;;;;;1.40;0.80;;;;;;;;;;5074223;28;20033;-58
2022/06/17 12:41:14;;;;;;;1.05;0.63;;;;;;;;;;5073542;28;20532;-57
2022/06/17 12:43:59;;;;;;;0.88;0.50;;;;;;;;;;5074100;28;20554;-57
2022/06/17 12:46:30;;;;;;;1.35;0.60;;;;;;;;;;5072792;28;20024;-58
2022/06/17 12:53:13;;;;;;;2.38;0.80;;;;;;;;;;5072562;28;20100;-56
2022/06/17 12:54:47;;;;;;;3.33;0.77;;;;;;;;;;5074142;28;20132;-56
2022/06/17 12:57:29;;;;;;;1.60;0.57;;;;;;;;;;5073070;28;20032;-56
2022/06/17 13:00:04;;;;;;;2.10;0.70;;;;;;;;;;5072357;28;20495;-58
2022/06/17 13:02:49;;;;;;;1.23;0.60;;;;;;;;;;5071022;28;20039;-57
2022/06/17 13:05:22;;;;;;;1.45;0.73;;;;;;;;;;5070875;28;20427;-56
2022/06/17 13:07:56;;;;;;;3.15;0.73;;;;;;;;;;5073136;28;20025;-56
2022/06/17 13:10:42;;;;;;;1.75;0.60;;;;;;;;;;5073228;28;20438;-57
2022/06/17 13:13:14;;;;;;;2.03;0.70;;;;;;;;;;5073143;28;20432;-55
2022/06/17 13:15:53;;;;;;;2.63;0.70;;;;;;;;;;5073510;28;20025;-58
2022/06/17 13:18:29;;;;;;;3.28;0.70;;;;;;;;;;5071452;28;20028;-57
2022/06/17 13:21:18;;;;;;;1.80;0.68;;;;;;;;;;5071876;28;20021;-58
2022/06/17 13:23:46;;;;;;;5.35;0.88;;;;;;;;;;5073434;28;20035;-56
2022/06/17 13:26:23;;;;;;;1.98;0.82;;;;;;;;;;5073370;28;20023;-57
2022/06/17 13:28:49;;;;;;;2.13;1.00;;;;;;;;;;5084421;28;20127;-56
2022/06/17 13:31:20;;;;;;;1.20;0.60;;;;;;;;;;5072191;28;20028;-57
2022/06/17 13:33:57;;;;;;;1.48;0.50;;;;;;;;;;5072151;28;20029;-57
2022/06/17 13:36:27;;;;;;;2.10;0.60;;;;;;;;;;5073445;28;20024;-55
2022/06/17 13:39:11;;;;;;;1.50;0.70;;;;;;;;;;5072071;28;20383;-55
2022/06/17 13:41:39;;;;;;;2.38;1.15;;;;;;;;;;5071310;28;20545;-56
2022/06/17 13:44:15;;;;;;;1.02;0.45;;;;;;;;;;5073058;28;20024;-58
2022/06/17 13:46:46;;;;;;;1.90;0.80;;;;;;;;;;5073134;28;20024;-57
2022/06/17 13:49:34;;;;;;;3.08;0.60;;;;;;;;;;5072799;28;20029;-57
2022/06/17 13:52:19;;;;;;;1.27;0.60;;;;;;;;;;5062731;28;20038;-57
2022/06/17 13:54:51;;;;;;;2.53;0.63;;;;;;;;;;5070463;28;20052;-57
2022/06/17 13:57:21;;;;;;;1.40;0.75;;;;;;;;;;5072698;28;20107;-55
2022/06/17 13:59:54;;;;;;;1.77;0.80;;;;;;;;;;5072301;28;20447;-56
2022/06/17 14:02:23;;;;;;;3.40;0.70;;;;;;;;;;5072560;28;20054;-56
2022/06/17 14:05:01;;;;;;;2.65;0.80;;;;;;;;;;5071969;28;20099;-57
2022/06/17 14:07:45;;;;;;;2.17;0.68;;;;;;;;;;5070250;28;20029;-55
2022/06/17 14:10:27;;;;;;;3.70;0.80;;;;;;;;;;5072323;28;20024;-58
2022/06/17 14:12:53;;;;;;;1.20;0.45;;;;;;;;;;5067029;28;20056;-57
2022/06/17 14:15:22;;;;;;;2.53;0.80;;;;;;;;;;5072331;28;20029;-56
2022/06/17 14:17:52;;;;;;;0.65;0.32;;;;;;;;;;5072282;28;20598;-57
2022/06/17 14:20:38;;;;;;;1.52;0.50;;;;;;;;;;5071941;28;20860;-57
2022/06/17 14:23:15;;;;;;;0.50;0.30;;;;;;;;;;5072036;28;20021;-57
2022/06/17 14:25:57;;;;;;;1.63;0.50;;;;;;;;;;5072375;28;20500;-57
2022/06/17 14:28:35;;;;;;;2.97;0.80;;;;;;;;;;5067845;28;20024;-57
2022/06/17 14:31:28;;;;;;;2.65;0.55;;;;;;;;;;5066249;28;20546;-57
2022/06/17 14:33:54;;;;;;;3.27;0.60;;;;;;;;;;5066697;28;20045;-56
2022/06/17 14:36:39;;;;;;;1.08;0.43;;;;;;;;;;5070935;28;20028;-55
2022/06/17 14:39:09;;;;;;;2.15;0.50;;;;;;;;;;5071287;28;20586;-57
2022/06/17 14:44:25;;;;;;;3.03;0.40;;;;;;;;;;5070906;28;20533;-56
2022/06/17 14:47:10;;;;;;;2.17;0.85;;;;;;;;;;5070697;28;20016;-58
2022/06/17 14:49:44;;;;;;;0.77;0.35;;;;;;;;;;5069951;28;20571;-58
2022/06/17 14:52:23;;;;;;;0.93;0.63;;;;;;;;;;5065877;28;21113;-56
2022/06/17 14:55:00;;;;;;;1.20;0.60;;;;;;;;;;5067901;28;20633;-57
2022/06/17 14:57:27;;;;;;;2.78;0.60;;;;;;;;;;5070015;28;20107;-58
2022/06/17 15:00:13;;;;;;;2.03;0.50;;;;;;;;;;5067996;28;20046;-56
2022/06/17 15:02:40;;;;;;;0.68;0.40;;;;;;;;;;5065038;28;20036;-56
2022/06/17 15:05:16;;;;;;;2.10;0.50;;;;;;;;;;5071291;28;20040;-57
2022/06/17 15:07:45;;;;;;;1.80;0.70;;;;;;;;;;5065843;28;20107;-56
2022/06/17 15:10:26;;;;;;;1.70;0.80;;;;;;;;;;5066854;28;20389;-58
2022/06/17 15:12:55;;;;;;;3.25;0.60;;;;;;;;;;5068496;28;20499;-57
2022/06/17 15:15:23;;;;;;;1.42;0.40;;;;;;;;;;5069056;28;20039;-56
2022/06/17 15:18:01;;;;;;;1.52;0.63;;;;;;;;;;5070281;28;20024;-55
2022/06/17 15:20:30;;;;;;;3.47;0.80;;;;;;;;;;5063854;28;20032;-56